Pensacola, Florida
Current Conditions -  °F | °C
As of 9:53 AM on Saturday 20 Dec 2014 (Local Time) from KPNS Reporting Station
Overcast Overcast  
Wind Chill: 43°   Ceiling: 700
Heat Index: 47°   Visibility: 10mi
Dew Point: 47°   Wind: 9mph
Humidity: 100%   Direction: 20°NNE
Pressure: 30.15"   Gusts: NA
Location:  30.42°N, 87.22°W
Report Text: KPNS 201553Z 02008KT 10SM BKN007 OVC014 08/08 A3015 RMK AO2 RAE1454 SLP214 P0000 T00830083
Loading
Personal Weather Stations






























Interactive Weather Map New forecast layout! Learn more

10-Day Weather Forecast

Advertisements
Track Severe Weather on mobile